createdAt,value
2019-01-25T00:01:45.446Z,20.74
2019-01-25T00:04:11.780Z,20.76
2019-01-25T00:06:38.124Z,20.74
2019-01-25T00:09:04.480Z,20.72
2019-01-25T00:11:30.848Z,20.75
2019-01-25T00:13:57.189Z,20.73
2019-01-25T00:16:23.522Z,20.70
2019-01-25T00:18:49.902Z,20.68
2019-01-25T00:21:16.241Z,20.69
2019-01-25T00:23:42.605Z,20.68
2019-01-25T00:26:08.950Z,20.70
2019-01-25T00:28:35.373Z,20.68
2019-01-25T00:31:01.704Z,20.66
2019-01-25T00:33:28.054Z,20.64
2019-01-25T00:35:54.393Z,20.69
2019-01-25T00:38:20.776Z,20.68
2019-01-25T00:40:47.113Z,20.62
2019-01-25T00:43:13.498Z,20.59
2019-01-25T00:45:39.871Z,20.61
2019-01-25T00:48:06.202Z,20.61
2019-01-25T00:50:32.544Z,20.57
2019-01-25T00:52:58.954Z,20.60
2019-01-25T00:55:25.298Z,20.58
2019-01-25T00:57:51.672Z,20.57
2019-01-25T01:00:18.004Z,20.58
2019-01-25T01:02:44.337Z,20.59
2019-01-25T01:05:10.657Z,20.55
2019-01-25T01:07:37.051Z,20.46
2019-01-25T01:10:03.367Z,20.40
2019-01-25T01:12:29.649Z,20.36
2019-01-25T01:14:55.988Z,20.35
2019-01-25T01:17:22.318Z,20.31
2019-01-25T01:19:48.666Z,20.35
2019-01-25T01:22:15.012Z,20.35
2019-01-25T01:24:41.396Z,20.34
2019-01-25T01:27:07.775Z,20.33
2019-01-25T01:29:34.107Z,20.33
2019-01-25T01:32:00.448Z,20.28
2019-01-25T01:34:26.777Z,20.34
2019-01-25T01:36:53.162Z,20.36
2019-01-25T01:39:19.531Z,20.32
2019-01-25T01:41:45.872Z,20.34
2019-01-25T01:44:12.258Z,20.35
2019-01-25T01:46:38.616Z,20.36
2019-01-25T01:49:04.947Z,20.41
2019-01-25T01:51:31.274Z,20.41
2019-01-25T01:53:57.599Z,20.46
2019-01-25T01:56:24.003Z,20.41
2019-01-25T01:58:50.338Z,20.39
2019-01-25T02:01:16.744Z,20.37
2019-01-25T02:03:43.116Z,20.42
2019-01-25T02:06:09.462Z,20.42
2019-01-25T02:08:35.857Z,20.40
2019-01-25T02:11:02.151Z,20.41
2019-01-25T02:13:28.481Z,20.37
2019-01-25T02:15:54.814Z,20.40
2019-01-25T02:18:21.187Z,20.36
2019-01-25T02:20:47.517Z,20.40
2019-01-25T02:23:13.875Z,20.37
2019-01-25T02:25:40.206Z,20.35
2019-01-25T02:28:06.546Z,20.36
2019-01-25T02:30:32.914Z,20.36
2019-01-25T02:32:59.349Z,20.35
2019-01-25T02:35:25.666Z,20.33
2019-01-25T02:37:52.005Z,20.35
2019-01-25T02:40:18.334Z,20.33
2019-01-25T02:42:44.661Z,20.40
2019-01-25T02:45:10.989Z,20.40
2019-01-25T02:47:37.323Z,20.34
2019-01-25T02:50:03.662Z,20.36
2019-01-25T02:52:29.999Z,20.39
2019-01-25T02:54:56.339Z,20.31
2019-01-25T02:57:22.764Z,20.39
2019-01-25T02:59:49.138Z,20.36
2019-01-25T03:02:15.472Z,20.39
2019-01-25T03:04:41.830Z,20.37
2019-01-25T03:07:08.190Z,20.40
2019-01-25T03:09:34.627Z,20.39
2019-01-25T03:12:00.974Z,20.39
2019-01-25T03:14:27.327Z,20.33
2019-01-25T03:16:53.653Z,20.37
2019-01-25T03:19:19.991Z,20.40
2019-01-25T03:21:46.316Z,20.35
2019-01-25T03:24:12.643Z,20.33
2019-01-25T03:26:38.982Z,20.34
2019-01-25T03:29:05.376Z,20.32
2019-01-25T03:31:31.709Z,20.37
2019-01-25T03:33:58.092Z,20.36
2019-01-25T03:36:24.426Z,20.33
2019-01-25T03:38:50.820Z,20.33
2019-01-25T03:41:17.279Z,20.35
2019-01-25T03:43:43.568Z,20.32
2019-01-25T03:46:09.917Z,20.34
2019-01-25T03:48:36.251Z,20.37
2019-01-25T03:51:02.610Z,20.43
2019-01-25T03:53:28.952Z,20.33
2019-01-25T03:55:55.285Z,20.35
2019-01-25T03:58:21.606Z,20.41
2019-01-25T04:00:47.991Z,20.50
2019-01-25T04:03:14.320Z,20.54
2019-01-25T04:05:40.685Z,20.57
2019-01-25T04:08:07.047Z,20.62
2019-01-25T04:10:33.376Z,20.64
2019-01-25T04:12:59.706Z,20.68
2019-01-25T04:15:26.083Z,20.75
2019-01-25T04:17:52.407Z,20.72
2019-01-25T04:20:18.784Z,20.76
2019-01-25T04:22:45.117Z,20.88
2019-01-25T04:25:11.500Z,20.80
2019-01-25T04:27:37.826Z,20.77
2019-01-25T04:30:04.168Z,20.79
2019-01-25T04:32:30.501Z,20.79
2019-01-25T04:34:56.870Z,20.77
2019-01-25T04:37:23.221Z,20.78
2019-01-25T04:39:49.514Z,20.83
2019-01-25T04:42:15.877Z,20.78
2019-01-25T04:44:42.230Z,20.88
2019-01-25T04:47:08.567Z,20.85
2019-01-25T04:49:34.960Z,20.86
2019-01-25T04:52:01.310Z,20.89
2019-01-25T04:54:27.632Z,20.86
2019-01-25T04:56:53.997Z,20.92
2019-01-25T04:59:20.324Z,20.92
2019-01-25T05:01:46.710Z,20.89
2019-01-25T05:04:13.056Z,20.88
2019-01-25T05:06:39.385Z,20.92
2019-01-25T05:09:05.714Z,20.89
2019-01-25T05:11:32.014Z,20.91
2019-01-25T05:13:58.353Z,20.92
2019-01-25T05:16:24.682Z,20.99
2019-01-25T05:18:51.031Z,20.94
2019-01-25T05:21:17.386Z,20.94
2019-01-25T05:23:43.747Z,20.95
2019-01-25T05:26:10.113Z,20.98
2019-01-25T05:28:36.462Z,21.00
2019-01-25T05:31:02.819Z,21.00
2019-01-25T05:33:29.166Z,21.07
2019-01-25T05:35:55.507Z,20.96
2019-01-25T05:38:24.079Z,21.10
2019-01-25T05:40:50.468Z,21.04
2019-01-25T05:43:16.761Z,21.08
2019-01-25T05:45:43.139Z,21.04
2019-01-25T05:48:10.508Z,21.05
2019-01-25T05:50:35.891Z,21.11
2019-01-25T05:53:02.265Z,21.20
2019-01-25T05:55:28.617Z,21.17
2019-01-25T05:57:55.145Z,21.09
2019-01-25T06:00:21.427Z,21.07
2019-01-25T06:02:47.998Z,21.17
2019-01-25T06:05:14.425Z,21.23
2019-01-25T06:07:40.953Z,21.17
2019-01-25T06:10:07.465Z,21.19
2019-01-25T06:12:33.801Z,21.22
2019-01-25T06:15:00.204Z,21.24
2019-01-25T06:17:26.496Z,21.18
2019-01-25T06:19:52.832Z,21.16
2019-01-25T06:22:19.173Z,21.18
2019-01-25T06:24:46.728Z,21.22
2019-01-25T06:27:11.869Z,21.21
2019-01-25T06:29:38.261Z,21.23
2019-01-25T06:32:04.535Z,21.28
2019-01-25T06:34:30.865Z,21.29
2019-01-25T06:36:57.233Z,21.23
2019-01-25T06:39:23.567Z,21.24
2019-01-25T06:41:49.971Z,21.21
2019-01-25T06:44:16.418Z,21.23
2019-01-25T06:46:42.713Z,21.22
2019-01-25T06:49:09.078Z,21.21
2019-01-25T06:51:35.484Z,21.24
2019-01-25T06:54:01.843Z,21.21
2019-01-25T06:56:28.171Z,21.25
2019-01-25T06:58:54.515Z,21.33
2019-01-25T07:01:20.858Z,21.36
2019-01-25T07:03:47.186Z,21.30
2019-01-25T07:06:13.505Z,21.31
2019-01-25T07:08:39.886Z,21.37
2019-01-25T07:11:06.175Z,21.44
2019-01-25T07:13:32.619Z,21.42
2019-01-25T07:15:58.938Z,21.34
2019-01-25T07:18:25.278Z,21.42
2019-01-25T07:20:51.610Z,21.46
2019-01-25T07:23:18.027Z,21.45
2019-01-25T07:25:44.291Z,21.39
2019-01-25T07:28:10.630Z,21.50
2019-01-25T07:30:36.998Z,21.47
2019-01-25T07:33:03.329Z,21.50
2019-01-25T07:35:29.799Z,21.54
2019-01-25T07:37:56.158Z,21.53
2019-01-25T07:40:22.493Z,21.61
2019-01-25T07:42:48.872Z,21.57
2019-01-25T07:45:15.474Z,21.60
2019-01-25T07:47:42.729Z,21.60
2019-01-25T07:50:09.163Z,21.59
2019-01-25T07:52:35.592Z,21.70
2019-01-25T07:55:01.909Z,21.63
2019-01-25T07:57:28.716Z,21.62
2019-01-25T07:59:55.042Z,21.67
2019-01-25T08:02:23.509Z,21.70
2019-01-25T08:04:49.825Z,21.73
2019-01-25T08:07:16.525Z,21.87
2019-01-25T08:09:42.861Z,21.79
2019-01-25T08:12:09.213Z,21.90
2019-01-25T08:14:35.549Z,22.26
2019-01-25T08:17:01.952Z,22.22
2019-01-25T08:19:28.390Z,22.26
2019-01-25T08:21:54.737Z,22.44
2019-01-25T08:24:21.217Z,22.39
2019-01-25T08:26:47.648Z,22.38
2019-01-25T08:29:13.907Z,22.41
2019-01-25T08:31:40.252Z,22.60
2019-01-25T08:34:06.662Z,22.61
2019-01-25T08:36:32.913Z,22.57
2019-01-25T08:38:59.285Z,22.86
2019-01-25T08:41:25.643Z,22.79
2019-01-25T08:43:52.067Z,22.93
2019-01-25T08:46:18.494Z,22.82
2019-01-25T08:48:44.794Z,22.99
2019-01-25T08:51:11.545Z,23.08
2019-01-25T08:53:37.673Z,23.03
2019-01-25T08:56:04.087Z,23.03
2019-01-25T08:58:30.422Z,23.00
2019-01-25T09:00:56.767Z,23.13
2019-01-25T09:03:23.188Z,23.15
2019-01-25T09:05:49.557Z,23.21
2019-01-25T09:08:15.878Z,23.35
2019-01-25T09:10:42.268Z,23.29
2019-01-25T09:13:08.605Z,23.24
2019-01-25T09:15:34.942Z,23.36
2019-01-25T09:18:01.305Z,23.44
2019-01-25T09:20:27.649Z,23.28
2019-01-25T09:22:54.051Z,23.29
2019-01-25T09:25:20.386Z,23.34
2019-01-25T09:27:46.739Z,23.39
2019-01-25T09:30:13.092Z,23.23
2019-01-25T09:32:39.463Z,23.29
2019-01-25T09:35:06.911Z,23.30
2019-01-25T09:37:32.563Z,23.25
2019-01-25T09:39:58.925Z,23.11
2019-01-25T09:42:31.016Z,23.20
2019-01-25T09:44:51.634Z,23.14
2019-01-25T09:47:17.989Z,23.14
2019-01-25T09:49:44.338Z,23.12
2019-01-25T09:52:10.674Z,23.16
2019-01-25T09:54:37.169Z,23.05
2019-01-25T09:57:04.066Z,22.98
2019-01-25T09:59:30.463Z,23.06
2019-01-25T10:01:56.858Z,23.13
2019-01-25T10:04:23.209Z,23.03
2019-01-25T10:06:49.582Z,23.02
2019-01-25T10:09:16.121Z,22.98
2019-01-25T10:11:42.466Z,22.96
2019-01-25T10:14:08.805Z,23.01
2019-01-25T10:16:37.161Z,23.03
2019-01-25T10:19:03.556Z,23.00
2019-01-25T10:21:29.940Z,23.03
2019-01-25T10:23:56.244Z,23.03
2019-01-25T10:26:22.573Z,22.97
2019-01-25T10:28:48.902Z,23.01
2019-01-25T10:31:15.246Z,22.97
2019-01-25T10:33:41.592Z,22.99
2019-01-25T10:36:07.943Z,22.99
2019-01-25T10:38:34.305Z,22.98
2019-01-25T10:41:00.830Z,22.93
2019-01-25T10:43:27.126Z,22.95
2019-01-25T10:45:53.470Z,22.95
2019-01-25T10:48:20.160Z,22.90
2019-01-25T10:50:46.497Z,22.94
2019-01-25T10:53:13.985Z,22.90
2019-01-25T10:55:40.387Z,22.95
2019-01-25T10:58:06.718Z,22.88
2019-01-25T11:00:33.063Z,23.00
2019-01-25T11:02:59.451Z,22.91
2019-01-25T11:05:25.776Z,22.97
2019-01-25T11:07:52.161Z,22.93
2019-01-25T11:10:18.522Z,22.95
2019-01-25T11:12:45.028Z,22.96
2019-01-25T11:15:11.367Z,22.92
2019-01-25T11:17:37.740Z,22.87
2019-01-25T11:20:04.102Z,22.90
2019-01-25T11:22:30.465Z,22.90
2019-01-25T11:24:56.816Z,22.80
2019-01-25T11:27:23.168Z,22.85
2019-01-25T11:29:49.538Z,22.80
2019-01-25T11:32:16.004Z,22.86
2019-01-25T11:34:42.388Z,22.86
2019-01-25T11:37:08.806Z,22.96
2019-01-25T11:39:35.136Z,22.98
2019-01-25T11:42:01.490Z,23.06
2019-01-25T11:44:27.946Z,23.20
2019-01-25T11:46:54.430Z,23.12
2019-01-25T11:49:20.752Z,23.15
2019-01-25T11:51:47.126Z,23.43
2019-01-25T11:54:13.429Z,23.41
2019-01-25T11:56:39.789Z,23.38
2019-01-25T11:59:06.188Z,23.30
2019-01-25T12:01:32.518Z,23.42
2019-01-25T12:03:58.851Z,23.41
2019-01-25T12:06:25.210Z,23.42
2019-01-25T12:08:51.586Z,23.51
2019-01-25T12:11:17.971Z,23.52
2019-01-25T12:13:44.323Z,23.53
2019-01-25T12:16:10.700Z,23.56
2019-01-25T12:18:37.030Z,23.58
2019-01-25T12:21:03.458Z,23.62
2019-01-25T12:23:29.813Z,23.54
2019-01-25T12:25:56.135Z,23.61
2019-01-25T12:28:22.554Z,23.56
2019-01-25T12:30:48.917Z,23.55
2019-01-25T12:33:15.230Z,23.60
2019-01-25T12:35:41.563Z,23.49
2019-01-25T12:38:08.034Z,23.53
2019-01-25T12:40:34.390Z,23.51
2019-01-25T12:43:00.825Z,23.49
2019-01-25T12:45:27.334Z,23.49
2019-01-25T12:47:53.867Z,23.57
2019-01-25T12:50:20.290Z,23.60
2019-01-25T12:52:46.735Z,23.49
2019-01-25T12:55:13.180Z,23.57
2019-01-25T12:57:39.570Z,23.55
2019-01-25T13:00:05.998Z,23.65
2019-01-25T13:02:32.453Z,23.62
2019-01-25T13:04:58.763Z,23.60
2019-01-25T13:07:26.261Z,23.60
2019-01-25T13:09:52.794Z,23.60
2019-01-25T13:12:19.331Z,23.68
2019-01-25T13:14:47.799Z,23.61
2019-01-25T13:17:14.719Z,23.56
2019-01-25T13:19:41.201Z,23.57
2019-01-25T13:22:07.716Z,23.54
2019-01-25T13:24:34.157Z,23.58
2019-01-25T13:27:01.009Z,23.60
2019-01-25T13:29:27.909Z,23.55
2019-01-25T13:31:54.344Z,23.56
2019-01-25T13:34:21.328Z,23.53
2019-01-25T13:36:47.748Z,23.60
2019-01-25T13:39:14.096Z,23.50
2019-01-25T13:41:40.607Z,23.59
2019-01-25T13:44:06.962Z,23.59
2019-01-25T13:46:33.307Z,23.57
2019-01-25T13:48:59.703Z,23.60
2019-01-25T13:51:26.087Z,23.58
2019-01-25T13:53:52.435Z,23.62
2019-01-25T13:56:18.847Z,23.64
2019-01-25T13:58:45.221Z,23.62
2019-01-25T14:01:11.554Z,23.69
2019-01-25T14:03:37.891Z,23.61
2019-01-25T14:06:04.291Z,23.66
2019-01-25T14:08:30.712Z,23.64
2019-01-25T14:10:57.035Z,23.59
2019-01-25T14:13:23.514Z,23.69
2019-01-25T14:15:49.961Z,23.61
2019-01-25T14:18:16.352Z,23.66
2019-01-25T14:20:42.697Z,23.66
2019-01-25T14:23:09.032Z,23.62
2019-01-25T14:25:35.450Z,23.66
2019-01-25T14:28:01.918Z,23.64
2019-01-25T14:30:28.244Z,23.65
2019-01-25T14:32:54.583Z,23.64
2019-01-25T14:35:20.979Z,23.69
2019-01-25T14:37:47.353Z,23.62
2019-01-25T14:40:13.679Z,23.67
2019-01-25T14:42:40.015Z,23.66
2019-01-25T14:45:06.363Z,23.70
2019-01-25T14:47:32.773Z,23.64
2019-01-25T14:49:59.664Z,23.64
2019-01-25T14:52:26.059Z,23.65
2019-01-25T14:54:52.439Z,23.68
2019-01-25T14:57:18.788Z,23.59
2019-01-25T14:59:45.124Z,23.56
2019-01-25T15:02:11.522Z,23.62
2019-01-25T15:04:40.266Z,23.51
2019-01-25T15:07:06.628Z,23.52
2019-01-25T15:09:33.126Z,23.56
2019-01-25T15:11:59.642Z,23.61
2019-01-25T15:14:26.093Z,23.56
2019-01-25T15:16:52.425Z,23.50
2019-01-25T15:19:18.779Z,23.53
2019-01-25T15:21:45.125Z,23.54
2019-01-25T15:24:11.471Z,23.44
2019-01-25T15:26:37.869Z,23.50
2019-01-25T15:29:04.268Z,23.50
2019-01-25T15:31:30.647Z,23.49
2019-01-25T15:33:56.977Z,23.53
2019-01-25T15:36:23.483Z,23.39
2019-01-25T15:38:49.980Z,23.50
2019-01-25T15:41:16.272Z,23.49
2019-01-25T15:43:42.613Z,23.43
2019-01-25T15:46:08.951Z,23.37
2019-01-25T15:48:35.372Z,23.45
2019-01-25T15:51:01.690Z,23.42
2019-01-25T15:53:28.098Z,23.37
2019-01-25T15:55:54.495Z,23.51
2019-01-25T15:58:20.918Z,23.35
2019-01-25T16:00:47.320Z,23.38
2019-01-25T16:03:13.731Z,23.41
2019-01-25T16:05:40.094Z,23.34
2019-01-25T16:08:06.490Z,23.37
2019-01-25T16:10:32.822Z,23.32
2019-01-25T16:12:59.185Z,23.24
2019-01-25T16:15:25.538Z,23.31
2019-01-25T16:17:51.883Z,23.36
2019-01-25T16:20:18.218Z,23.30
2019-01-25T16:22:44.558Z,23.26
2019-01-25T16:25:10.902Z,23.26
2019-01-25T16:27:37.320Z,23.21
2019-01-25T16:30:03.649Z,23.27
2019-01-25T16:32:29.993Z,23.25
2019-01-25T16:34:56.377Z,23.24
2019-01-25T16:37:22.819Z,23.16
2019-01-25T16:39:49.157Z,23.18
2019-01-25T16:42:15.491Z,23.17
2019-01-25T16:44:41.835Z,23.16
2019-01-25T16:47:08.271Z,23.12
2019-01-25T16:49:34.610Z,23.08
2019-01-25T16:52:00.945Z,23.10
2019-01-25T16:54:27.283Z,23.10
2019-01-25T16:56:53.697Z,23.07
2019-01-25T16:59:19.979Z,23.06
2019-01-25T17:01:46.374Z,23.06
2019-01-25T17:04:12.729Z,23.01
2019-01-25T17:06:39.133Z,23.02
2019-01-25T17:09:05.498Z,23.00
2019-01-25T17:11:31.795Z,23.00
2019-01-25T17:13:58.135Z,23.02
2019-01-25T17:16:24.600Z,23.01
2019-01-25T17:18:50.889Z,23.00
2019-01-25T17:21:17.266Z,22.98
2019-01-25T17:23:43.632Z,22.98
2019-01-25T17:26:10.086Z,23.02
2019-01-25T17:28:36.473Z,22.93
2019-01-25T17:31:02.803Z,23.01
2019-01-25T17:33:29.204Z,22.99
2019-01-25T17:35:55.554Z,22.99
2019-01-25T17:38:21.915Z,22.98
2019-01-25T17:40:48.263Z,22.98
2019-01-25T17:43:14.647Z,22.94
2019-01-25T17:45:40.999Z,22.94
2019-01-25T17:48:07.425Z,22.97
2019-01-25T17:50:33.746Z,22.93
2019-01-25T17:53:00.116Z,22.83
2019-01-25T17:55:26.428Z,22.90
2019-01-25T17:57:52.754Z,22.94
2019-01-25T18:00:19.168Z,22.93
2019-01-25T18:02:45.507Z,22.94
2019-01-25T18:05:11.838Z,22.85
2019-01-25T18:07:38.179Z,22.85
2019-01-25T18:10:04.514Z,22.84
2019-01-25T18:12:30.856Z,22.82
2019-01-25T18:14:57.195Z,22.82
2019-01-25T18:17:23.601Z,22.79
2019-01-25T18:19:49.870Z,22.78
2019-01-25T18:22:16.213Z,22.80
2019-01-25T18:24:42.576Z,22.75
2019-01-25T18:27:08.956Z,22.75
2019-01-25T18:29:35.306Z,22.73
2019-01-25T18:32:01.638Z,22.72
2019-01-25T18:34:27.967Z,22.71
2019-01-25T18:36:54.387Z,22.69
2019-01-25T18:39:20.792Z,22.66
2019-01-25T18:41:47.142Z,22.63
2019-01-25T18:44:13.798Z,22.57
2019-01-25T18:46:39.810Z,22.56
2019-01-25T18:49:06.198Z,22.52
2019-01-25T18:51:32.536Z,22.43
2019-01-25T18:53:58.910Z,22.40
2019-01-25T18:56:25.239Z,22.37
2019-01-25T18:58:51.629Z,22.31
2019-01-25T19:01:17.994Z,22.31
2019-01-25T19:03:44.331Z,22.26
2019-01-25T19:06:10.698Z,22.21
2019-01-25T19:08:37.003Z,22.17
2019-01-25T19:11:03.355Z,22.19
2019-01-25T19:13:29.676Z,22.11
2019-01-25T19:15:56.020Z,22.13
2019-01-25T19:18:22.423Z,22.09
2019-01-25T19:20:48.719Z,22.09
2019-01-25T19:23:15.115Z,22.05
2019-01-25T19:25:41.419Z,22.05
2019-01-25T19:28:07.794Z,22.01
2019-01-25T19:30:34.132Z,22.01
2019-01-25T19:33:00.543Z,21.96
2019-01-25T19:35:26.936Z,21.98
2019-01-25T19:37:53.274Z,21.94
2019-01-25T19:40:19.626Z,21.94
2019-01-25T19:42:45.996Z,21.92
2019-01-25T19:45:12.415Z,21.90
2019-01-25T19:47:38.749Z,21.89
2019-01-25T19:50:05.081Z,21.87
2019-01-25T19:52:31.351Z,21.84
2019-01-25T19:54:57.681Z,21.79
2019-01-25T19:57:24.007Z,21.91
2019-01-25T19:59:50.424Z,21.85
2019-01-25T20:02:16.733Z,21.89
2019-01-25T20:04:43.100Z,21.97
2019-01-25T20:07:09.460Z,22.01
2019-01-25T20:09:35.799Z,22.04
2019-01-25T20:14:37.389Z,21.93
2019-01-25T20:17:03.764Z,21.97
2019-01-25T20:19:30.095Z,22.03
2019-01-25T20:21:56.429Z,22.05
2019-01-25T20:24:27.152Z,22.01
2019-01-25T20:26:53.550Z,21.95
2019-01-25T20:29:19.881Z,21.91
2019-01-25T20:31:46.253Z,21.80
2019-01-25T20:34:12.654Z,21.78
2019-01-25T20:36:38.985Z,21.75
2019-01-25T20:39:05.347Z,21.68
2019-01-25T20:41:31.665Z,21.67
2019-01-25T20:43:58.150Z,21.62
2019-01-25T20:46:24.579Z,21.60
2019-01-25T20:48:50.910Z,21.58
2019-01-25T20:51:17.293Z,21.52
2019-01-25T20:53:43.673Z,21.52
2019-01-25T20:56:10.059Z,21.50
2019-01-25T20:58:36.423Z,21.47
2019-01-25T21:01:02.806Z,21.44
2019-01-25T21:03:29.096Z,21.40
2019-01-25T21:05:55.480Z,21.39
2019-01-25T21:08:21.809Z,21.36
2019-01-25T21:10:48.145Z,21.33
2019-01-25T21:13:14.487Z,21.33
2019-01-25T21:15:40.872Z,21.33
2019-01-25T21:18:07.189Z,21.29
2019-01-25T21:20:33.564Z,21.28
2019-01-25T21:22:59.969Z,21.25
2019-01-25T21:25:26.329Z,21.23
2019-01-25T21:27:52.674Z,21.21
2019-01-25T21:30:19.080Z,21.18
2019-01-25T21:32:45.418Z,21.16
2019-01-25T21:35:11.869Z,21.16
2019-01-25T21:37:38.164Z,21.10
2019-01-25T21:40:08.709Z,21.11
2019-01-25T21:42:30.870Z,21.11
2019-01-25T21:44:57.257Z,21.08
2019-01-25T21:47:23.637Z,21.08
2019-01-25T21:49:49.965Z,21.03
2019-01-25T21:52:16.355Z,21.03
2019-01-25T21:54:42.734Z,21.02
2019-01-25T21:57:09.124Z,20.99
2019-01-25T21:59:35.485Z,21.00
2019-01-25T22:02:01.842Z,20.98
2019-01-25T22:04:28.188Z,20.94
2019-01-25T22:06:54.582Z,20.95
2019-01-25T22:09:20.907Z,20.93
2019-01-25T22:11:47.244Z,20.92
2019-01-25T22:14:13.582Z,20.88
2019-01-25T22:16:39.953Z,20.91
2019-01-25T22:19:06.311Z,20.90
2019-01-25T22:21:32.656Z,20.85
2019-01-25T22:23:59.035Z,20.87
2019-01-25T22:26:25.366Z,20.83
2019-01-25T22:28:51.723Z,20.85
2019-01-25T22:31:18.081Z,20.84
2019-01-25T22:33:44.442Z,20.80
2019-01-25T22:36:10.737Z,20.78
2019-01-25T22:38:37.071Z,20.78
2019-01-25T22:41:03.399Z,20.80
2019-01-25T22:43:29.795Z,20.76
2019-01-25T22:45:58.688Z,20.76
2019-01-25T22:48:22.471Z,20.77
2019-01-25T22:50:48.901Z,20.76
2019-01-25T22:53:15.281Z,20.74
2019-01-25T22:55:41.612Z,20.73
2019-01-25T22:58:07.941Z,20.73
2019-01-25T23:00:34.272Z,20.72
2019-01-25T23:03:00.602Z,20.68
2019-01-25T23:05:26.934Z,20.69
2019-01-25T23:07:53.262Z,20.64
2019-01-25T23:10:19.624Z,20.64
2019-01-25T23:12:45.943Z,20.62
2019-01-25T23:15:12.331Z,20.61
2019-01-25T23:17:38.663Z,20.64
2019-01-25T23:20:04.995Z,20.65
2019-01-25T23:22:31.338Z,20.60
2019-01-25T23:24:57.769Z,20.61
2019-01-25T23:27:24.167Z,20.59
2019-01-25T23:29:50.512Z,20.61
2019-01-25T23:32:16.932Z,20.58
2019-01-25T23:34:43.262Z,20.58
2019-01-25T23:37:09.595Z,20.57
2019-01-25T23:39:35.940Z,20.56
2019-01-25T23:42:02.358Z,20.54
2019-01-25T23:44:28.715Z,20.54
2019-01-25T23:46:55.150Z,20.54
2019-01-25T23:49:21.497Z,20.50
2019-01-25T23:51:47.824Z,20.53
2019-01-25T23:54:14.226Z,20.50
2019-01-25T23:56:40.573Z,20.51
2019-01-25T23:59:06.897Z,20.50
